sensor_id;sensor_type;location;lat;lon;timestamp;P1;durP1;ratioP1;P2;durP2;ratioP2
33268;SDS011;19640;50.944;5.260;2023-11-19T00:02:10;2.53;;;1.60;;
33268;SDS011;19640;50.944;5.260;2023-11-19T00:04:39;2.65;;;1.90;;
33268;SDS011;19640;50.944;5.260;2023-11-19T00:07:05;2.00;;;1.60;;
33268;SDS011;19640;50.944;5.260;2023-11-19T00:09:33;2.30;;;1.60;;
33268;SDS011;19640;50.944;5.260;2023-11-19T00:12:01;1.83;;;1.60;;
33268;SDS011;19640;50.944;5.260;2023-11-19T00:14:27;2.22;;;1.30;;
33268;SDS011;19640;50.944;5.260;2023-11-19T00:16:54;1.92;;;1.60;;
33268;SDS011;19640;50.944;5.260;2023-11-19T00:19:19;2.58;;;1.95;;
33268;SDS011;19640;50.944;5.260;2023-11-19T00:21:46;2.30;;;2.10;;
33268;SDS011;19640;50.944;5.260;2023-11-19T00:24:12;4.13;;;2.35;;
33268;SDS011;19640;50.944;5.260;2023-11-19T00:26:38;2.92;;;2.60;;
33268;SDS011;19640;50.944;5.260;2023-11-19T00:29:04;3.47;;;2.78;;
33268;SDS011;19640;50.944;5.260;2023-11-19T00:31:31;5.90;;;2.97;;
33268;SDS011;19640;50.944;5.260;2023-11-19T00:33:57;3.03;;;2.67;;
33268;SDS011;19640;50.944;5.260;2023-11-19T00:36:23;3.67;;;2.63;;
33268;SDS011;19640;50.944;5.260;2023-11-19T00:38:49;3.97;;;2.80;;
33268;SDS011;19640;50.944;5.260;2023-11-19T00:41:15;4.18;;;2.83;;
33268;SDS011;19640;50.944;5.260;2023-11-19T00:43:42;3.85;;;2.95;;
33268;SDS011;19640;50.944;5.260;2023-11-19T00:46:08;4.25;;;2.97;;
33268;SDS011;19640;50.944;5.260;2023-11-19T00:48:35;3.90;;;3.30;;
33268;SDS011;19640;50.944;5.260;2023-11-19T00:51:01;5.25;;;3.10;;
33268;SDS011;19640;50.944;5.260;2023-11-19T00:53:29;6.68;;;3.10;;
33268;SDS011;19640;50.944;5.260;2023-11-19T00:55:55;7.20;;;3.38;;
33268;SDS011;19640;50.944;5.260;2023-11-19T00:58:20;5.43;;;2.90;;
33268;SDS011;19640;50.944;5.260;2023-11-19T01:00:47;3.67;;;3.05;;
33268;SDS011;19640;50.944;5.260;2023-11-19T01:03:12;3.88;;;3.03;;
33268;SDS011;19640;50.944;5.260;2023-11-19T01:05:39;6.40;;;2.78;;
33268;SDS011;19640;50.944;5.260;2023-11-19T01:08:06;4.32;;;2.92;;
33268;SDS011;19640;50.944;5.260;2023-11-19T01:10:31;6.72;;;3.22;;
33268;SDS011;19640;50.944;5.260;2023-11-19T01:12:57;7.10;;;3.55;;
33268;SDS011;19640;50.944;5.260;2023-11-19T01:15:23;3.35;;;2.72;;
33268;SDS011;19640;50.944;5.260;2023-11-19T01:17:49;13.05;;;3.97;;
33268;SDS011;19640;50.944;5.260;2023-11-19T01:20:14;10.05;;;3.20;;
33268;SDS011;19640;50.944;5.260;2023-11-19T01:22:40;4.90;;;2.67;;
33268;SDS011;19640;50.944;5.260;2023-11-19T01:25:06;13.20;;;2.97;;
33268;SDS011;19640;50.944;5.260;2023-11-19T01:27:32;9.20;;;2.80;;
33268;SDS011;19640;50.944;5.260;2023-11-19T01:30:01;9.30;;;2.75;;
33268;SDS011;19640;50.944;5.260;2023-11-19T01:32:31;8.18;;;2.40;;
33268;SDS011;19640;50.944;5.260;2023-11-19T01:34:57;10.18;;;2.50;;
33268;SDS011;19640;50.944;5.260;2023-11-19T01:37:22;9.02;;;1.80;;
33268;SDS011;19640;50.944;5.260;2023-11-19T01:39:48;9.57;;;2.10;;
33268;SDS011;19640;50.944;5.260;2023-11-19T01:42:14;9.35;;;2.35;;
33268;SDS011;19640;50.944;5.260;2023-11-19T01:44:40;9.63;;;2.63;;
33268;SDS011;19640;50.944;5.260;2023-11-19T01:47:06;14.82;;;2.92;;
33268;SDS011;19640;50.944;5.260;2023-11-19T01:49:33;14.48;;;2.65;;
33268;SDS011;19640;50.944;5.260;2023-11-19T01:51:59;14.60;;;2.08;;
33268;SDS011;19640;50.944;5.260;2023-11-19T01:54:26;14.45;;;2.17;;
33268;SDS011;19640;50.944;5.260;2023-11-19T01:56:53;3.13;;;1.75;;
33268;SDS011;19640;50.944;5.260;2023-11-19T01:59:22;15.27;;;2.17;;
33268;SDS011;19640;50.944;5.260;2023-11-19T02:01:52;7.63;;;2.10;;
33268;SDS011;19640;50.944;5.260;2023-11-19T02:04:21;16.48;;;2.13;;
33268;SDS011;19640;50.944;5.260;2023-11-19T02:06:47;14.60;;;2.25;;
33268;SDS011;19640;50.944;5.260;2023-11-19T02:09:15;17.27;;;2.33;;
33268;SDS011;19640;50.944;5.260;2023-11-19T02:11:44;8.55;;;1.70;;
33268;SDS011;19640;50.944;5.260;2023-11-19T02:14:13;18.48;;;2.28;;
33268;SDS011;19640;50.944;5.260;2023-11-19T02:16:39;15.73;;;2.13;;
33268;SDS011;19640;50.944;5.260;2023-11-19T02:19:04;11.38;;;2.05;;
33268;SDS011;19640;50.944;5.260;2023-11-19T02:21:31;12.10;;;1.85;;
33268;SDS011;19640;50.944;5.260;2023-11-19T02:23:57;8.63;;;2.17;;
33268;SDS011;19640;50.944;5.260;2023-11-19T02:26:29;11.63;;;1.77;;
33268;SDS011;19640;50.944;5.260;2023-11-19T02:29:03;12.32;;;2.45;;
33268;SDS011;19640;50.944;5.260;2023-11-19T02:31:29;6.07;;;1.80;;
33268;SDS011;19640;50.944;5.260;2023-11-19T02:33:55;15.18;;;2.10;;
33268;SDS011;19640;50.944;5.260;2023-11-19T02:36:20;4.43;;;2.05;;
33268;SDS011;19640;50.944;5.260;2023-11-19T02:38:46;14.40;;;2.28;;
33268;SDS011;19640;50.944;5.260;2023-11-19T02:41:13;18.25;;;2.30;;
33268;SDS011;19640;50.944;5.260;2023-11-19T02:43:39;10.63;;;1.70;;
33268;SDS011;19640;50.944;5.260;2023-11-19T02:46:05;13.00;;;1.90;;
33268;SDS011;19640;50.944;5.260;2023-11-19T02:48:35;16.88;;;2.22;;
33268;SDS011;19640;50.944;5.260;2023-11-19T02:51:04;7.65;;;2.00;;
33268;SDS011;19640;50.944;5.260;2023-11-19T02:53:31;13.30;;;1.73;;
33268;SDS011;19640;50.944;5.260;2023-11-19T02:55:57;9.10;;;1.58;;
33268;SDS011;19640;50.944;5.260;2023-11-19T02:58:31;14.48;;;2.30;;
33268;SDS011;19640;50.944;5.260;2023-11-19T03:00:57;17.02;;;2.20;;
33268;SDS011;19640;50.944;5.260;2023-11-19T03:03:26;13.15;;;2.05;;
33268;SDS011;19640;50.944;5.260;2023-11-19T03:06:06;15.85;;;2.50;;
33268;SDS011;19640;50.944;5.260;2023-11-19T03:08:33;6.18;;;1.92;;
33268;SDS011;19640;50.944;5.260;2023-11-19T03:11:00;14.40;;;2.08;;
33268;SDS011;19640;50.944;5.260;2023-11-19T03:13:26;15.38;;;2.67;;
33268;SDS011;19640;50.944;5.260;2023-11-19T03:15:52;22.33;;;2.45;;
33268;SDS011;19640;50.944;5.260;2023-11-19T03:18:20;17.55;;;2.10;;
33268;SDS011;19640;50.944;5.260;2023-11-19T03:20:46;16.20;;;2.20;;
33268;SDS011;19640;50.944;5.260;2023-11-19T03:23:12;17.02;;;2.95;;
33268;SDS011;19640;50.944;5.260;2023-11-19T03:25:38;14.60;;;2.95;;
33268;SDS011;19640;50.944;5.260;2023-11-19T03:28:04;12.55;;;1.80;;
33268;SDS011;19640;50.944;5.260;2023-11-19T03:30:30;20.08;;;2.25;;
33268;SDS011;19640;50.944;5.260;2023-11-19T03:32:56;14.05;;;2.05;;
33268;SDS011;19640;50.944;5.260;2023-11-19T03:35:23;11.38;;;1.88;;
33268;SDS011;19640;50.944;5.260;2023-11-19T03:37:49;13.25;;;2.55;;
33268;SDS011;19640;50.944;5.260;2023-11-19T03:40:16;12.82;;;2.05;;
33268;SDS011;19640;50.944;5.260;2023-11-19T03:42:42;26.23;;;2.80;;
33268;SDS011;19640;50.944;5.260;2023-11-19T03:45:08;15.10;;;2.38;;
33268;SDS011;19640;50.944;5.260;2023-11-19T03:47:34;9.73;;;2.70;;
33268;SDS011;19640;50.944;5.260;2023-11-19T03:50:01;12.13;;;1.98;;
33268;SDS011;19640;50.944;5.260;2023-11-19T03:52:28;17.17;;;2.03;;
33268;SDS011;19640;50.944;5.260;2023-11-19T03:54:54;15.65;;;2.60;;
33268;SDS011;19640;50.944;5.260;2023-11-19T03:57:21;10.18;;;2.03;;
33268;SDS011;19640;50.944;5.260;2023-11-19T03:59:47;12.82;;;2.30;;
33268;SDS011;19640;50.944;5.260;2023-11-19T04:02:13;11.70;;;2.20;;
33268;SDS011;19640;50.944;5.260;2023-11-19T04:04:38;8.40;;;1.80;;
33268;SDS011;19640;50.944;5.260;2023-11-19T04:07:04;14.80;;;1.77;;
33268;SDS011;19640;50.944;5.260;2023-11-19T04:09:30;18.02;;;2.40;;
33268;SDS011;19640;50.944;5.260;2023-11-19T04:11:58;13.15;;;2.10;;
33268;SDS011;19640;50.944;5.260;2023-11-19T04:14:24;16.00;;;2.47;;
33268;SDS011;19640;50.944;5.260;2023-11-19T04:16:50;12.05;;;2.25;;
33268;SDS011;19640;50.944;5.260;2023-11-19T04:19:16;9.80;;;1.88;;
33268;SDS011;19640;50.944;5.260;2023-11-19T04:21:42;13.02;;;1.70;;
33268;SDS011;19640;50.944;5.260;2023-11-19T04:24:08;15.98;;;3.03;;
33268;SDS011;19640;50.944;5.260;2023-11-19T04:26:46;16.67;;;2.38;;
33268;SDS011;19640;50.944;5.260;2023-11-19T04:29:12;10.52;;;2.30;;
33268;SDS011;19640;50.944;5.260;2023-11-19T04:31:40;14.07;;;2.00;;
33268;SDS011;19640;50.944;5.260;2023-11-19T04:34:06;21.52;;;2.47;;
33268;SDS011;19640;50.944;5.260;2023-11-19T04:36:32;15.77;;;2.00;;
33268;SDS011;19640;50.944;5.260;2023-11-19T04:38:58;11.45;;;2.30;;
33268;SDS011;19640;50.944;5.260;2023-11-19T04:41:25;11.57;;;1.90;;
33268;SDS011;19640;50.944;5.260;2023-11-19T04:43:52;11.30;;;2.00;;
33268;SDS011;19640;50.944;5.260;2023-11-19T04:46:18;8.88;;;1.92;;
33268;SDS011;19640;50.944;5.260;2023-11-19T04:48:44;10.45;;;1.83;;
33268;SDS011;19640;50.944;5.260;2023-11-19T04:51:10;13.45;;;2.30;;
33268;SDS011;19640;50.944;5.260;2023-11-19T04:53:36;15.95;;;1.90;;
33268;SDS011;19640;50.944;5.260;2023-11-19T04:56:07;13.80;;;2.22;;
33268;SDS011;19640;50.944;5.260;2023-11-19T04:58:36;15.85;;;2.83;;
33268;SDS011;19640;50.944;5.260;2023-11-19T05:01:02;18.60;;;2.50;;
33268;SDS011;19640;50.944;5.260;2023-11-19T05:03:29;17.63;;;2.65;;
33268;SDS011;19640;50.944;5.260;2023-11-19T05:05:56;20.75;;;3.15;;
33268;SDS011;19640;50.944;5.260;2023-11-19T05:08:21;17.52;;;2.13;;
33268;SDS011;19640;50.944;5.260;2023-11-19T05:10:47;12.57;;;2.25;;
33268;SDS011;19640;50.944;5.260;2023-11-19T05:13:13;20.95;;;2.65;;
33268;SDS011;19640;50.944;5.260;2023-11-19T05:15:38;17.35;;;2.45;;
33268;SDS011;19640;50.944;5.260;2023-11-19T05:18:04;17.13;;;2.83;;
33268;SDS011;19640;50.944;5.260;2023-11-19T05:20:30;12.60;;;2.50;;
33268;SDS011;19640;50.944;5.260;2023-11-19T05:22:56;19.83;;;3.53;;
33268;SDS011;19640;50.944;5.260;2023-11-19T05:25:21;30.92;;;3.85;;
33268;SDS011;19640;50.944;5.260;2023-11-19T05:27:47;14.52;;;2.13;;
33268;SDS011;19640;50.944;5.260;2023-11-19T05:30:13;13.80;;;2.20;;
33268;SDS011;19640;50.944;5.260;2023-11-19T05:32:38;17.63;;;2.45;;
33268;SDS011;19640;50.944;5.260;2023-11-19T05:35:04;23.55;;;2.85;;
33268;SDS011;19640;50.944;5.260;2023-11-19T05:37:30;20.80;;;3.50;;
33268;SDS011;19640;50.944;5.260;2023-11-19T05:39:56;17.48;;;2.92;;
33268;SDS011;19640;50.944;5.260;2023-11-19T05:42:22;21.33;;;3.03;;
33268;SDS011;19640;50.944;5.260;2023-11-19T05:44:48;17.20;;;2.88;;
33268;SDS011;19640;50.944;5.260;2023-11-19T05:47:14;22.48;;;2.65;;
33268;SDS011;19640;50.944;5.260;2023-11-19T05:49:40;21.15;;;3.03;;
33268;SDS011;19640;50.944;5.260;2023-11-19T05:52:06;27.15;;;2.42;;
33268;SDS011;19640;50.944;5.260;2023-11-19T05:54:32;17.73;;;2.35;;
33268;SDS011;19640;50.944;5.260;2023-11-19T05:57:03;21.83;;;2.38;;
33268;SDS011;19640;50.944;5.260;2023-11-19T06:02:01;20.85;;;2.83;;
33268;SDS011;19640;50.944;5.260;2023-11-19T06:04:29;20.00;;;2.72;;
33268;SDS011;19640;50.944;5.260;2023-11-19T06:06:55;27.67;;;2.97;;
33268;SDS011;19640;50.944;5.260;2023-11-19T06:09:21;14.75;;;2.38;;
33268;SDS011;19640;50.944;5.260;2023-11-19T06:11:50;22.40;;;2.97;;
33268;SDS011;19640;50.944;5.260;2023-11-19T06:14:17;16.10;;;2.25;;
33268;SDS011;19640;50.944;5.260;2023-11-19T06:16:43;15.73;;;2.65;;
33268;SDS011;19640;50.944;5.260;2023-11-19T06:19:09;22.70;;;2.60;;
33268;SDS011;19640;50.944;5.260;2023-11-19T06:21:36;13.57;;;2.13;;
33268;SDS011;19640;50.944;5.260;2023-11-19T06:24:02;26.27;;;2.90;;
33268;SDS011;19640;50.944;5.260;2023-11-19T06:26:28;14.48;;;2.72;;
33268;SDS011;19640;50.944;5.260;2023-11-19T06:28:55;12.80;;;2.50;;
33268;SDS011;19640;50.944;5.260;2023-11-19T06:31:20;18.48;;;2.33;;
33268;SDS011;19640;50.944;5.260;2023-11-19T06:33:46;17.00;;;2.72;;
33268;SDS011;19640;50.944;5.260;2023-11-19T06:36:14;14.90;;;2.33;;
33268;SDS011;19640;50.944;5.260;2023-11-19T06:38:41;24.90;;;2.80;;
33268;SDS011;19640;50.944;5.260;2023-11-19T06:41:08;20.08;;;2.72;;
33268;SDS011;19640;50.944;5.260;2023-11-19T06:43:36;18.52;;;3.15;;
33268;SDS011;19640;50.944;5.260;2023-11-19T06:46:02;24.38;;;2.85;;
33268;SDS011;19640;50.944;5.260;2023-11-19T06:48:31;24.30;;;2.70;;
33268;SDS011;19640;50.944;5.260;2023-11-19T06:50:57;17.25;;;2.10;;
33268;SDS011;19640;50.944;5.260;2023-11-19T06:53:23;17.52;;;2.78;;
33268;SDS011;19640;50.944;5.260;2023-11-19T06:55:49;22.70;;;2.25;;
33268;SDS011;19640;50.944;5.260;2023-11-19T06:58:15;14.30;;;2.13;;
33268;SDS011;19640;50.944;5.260;2023-11-19T07:00:44;18.80;;;3.00;;
33268;SDS011;19640;50.944;5.260;2023-11-19T07:03:11;22.45;;;2.83;;
33268;SDS011;19640;50.944;5.260;2023-11-19T07:05:37;9.02;;;2.30;;
33268;SDS011;19640;50.944;5.260;2023-11-19T07:08:04;26.73;;;2.95;;
33268;SDS011;19640;50.944;5.260;2023-11-19T07:10:32;24.70;;;2.67;;
33268;SDS011;19640;50.944;5.260;2023-11-19T07:13:01;20.95;;;2.70;;
33268;SDS011;19640;50.944;5.260;2023-11-19T07:15:28;19.92;;;3.17;;
33268;SDS011;19640;50.944;5.260;2023-11-19T07:17:53;13.93;;;2.85;;
33268;SDS011;19640;50.944;5.260;2023-11-19T07:20:19;19.40;;;3.38;;
33268;SDS011;19640;50.944;5.260;2023-11-19T07:22:46;21.67;;;3.55;;
33268;SDS011;19640;50.944;5.260;2023-11-19T07:25:15;21.92;;;3.75;;
33268;SDS011;19640;50.944;5.260;2023-11-19T07:27:40;25.27;;;3.38;;
33268;SDS011;19640;50.944;5.260;2023-11-19T07:30:06;22.35;;;3.35;;
33268;SDS011;19640;50.944;5.260;2023-11-19T07:32:32;14.20;;;2.80;;
33268;SDS011;19640;50.944;5.260;2023-11-19T07:34:58;17.42;;;2.47;;
33268;SDS011;19640;50.944;5.260;2023-11-19T07:37:24;18.55;;;2.42;;
33268;SDS011;19640;50.944;5.260;2023-11-19T07:39:50;18.30;;;3.72;;
33268;SDS011;19640;50.944;5.260;2023-11-19T07:42:16;25.95;;;3.25;;
33268;SDS011;19640;50.944;5.260;2023-11-19T07:44:43;14.52;;;3.13;;
33268;SDS011;19640;50.944;5.260;2023-11-19T07:47:09;23.75;;;3.15;;
33268;SDS011;19640;50.944;5.260;2023-11-19T07:49:36;15.95;;;3.38;;
33268;SDS011;19640;50.944;5.260;2023-11-19T07:52:01;23.65;;;3.17;;
33268;SDS011;19640;50.944;5.260;2023-11-19T07:54:28;18.17;;;4.28;;
33268;SDS011;19640;50.944;5.260;2023-11-19T07:56:54;18.05;;;3.42;;
33268;SDS011;19640;50.944;5.260;2023-11-19T07:59:20;27.30;;;4.18;;
33268;SDS011;19640;50.944;5.260;2023-11-19T08:01:46;27.20;;;3.45;;
33268;SDS011;19640;50.944;5.260;2023-11-19T08:04:12;26.70;;;3.17;;
33268;SDS011;19640;50.944;5.260;2023-11-19T08:06:39;20.08;;;3.22;;
33268;SDS011;19640;50.944;5.260;2023-11-19T08:09:05;25.02;;;2.92;;
33268;SDS011;19640;50.944;5.260;2023-11-19T08:11:31;19.50;;;4.10;;
33268;SDS011;19640;50.944;5.260;2023-11-19T08:13:58;24.67;;;3.90;;
33268;SDS011;19640;50.944;5.260;2023-11-19T08:16:24;20.70;;;3.30;;
33268;SDS011;19640;50.944;5.260;2023-11-19T08:18:49;29.38;;;3.45;;
33268;SDS011;19640;50.944;5.260;2023-11-19T08:21:15;23.10;;;3.40;;
33268;SDS011;19640;50.944;5.260;2023-11-19T08:23:41;19.50;;;2.67;;
33268;SDS011;19640;50.944;5.260;2023-11-19T08:26:08;26.23;;;3.10;;
33268;SDS011;19640;50.944;5.260;2023-11-19T08:28:34;23.08;;;3.70;;
33268;SDS011;19640;50.944;5.260;2023-11-19T08:31:00;33.83;;;3.60;;
33268;SDS011;19640;50.944;5.260;2023-11-19T08:33:26;23.13;;;3.63;;
33268;SDS011;19640;50.944;5.260;2023-11-19T08:35:53;17.73;;;3.05;;
33268;SDS011;19640;50.944;5.260;2023-11-19T08:38:19;19.30;;;2.67;;
33268;SDS011;19640;50.944;5.260;2023-11-19T08:40:44;20.52;;;2.90;;
33268;SDS011;19640;50.944;5.260;2023-11-19T08:43:10;21.67;;;3.20;;
33268;SDS011;19640;50.944;5.260;2023-11-19T08:45:35;23.05;;;2.80;;
33268;SDS011;19640;50.944;5.260;2023-11-19T08:48:01;13.27;;;3.13;;
33268;SDS011;19640;50.944;5.260;2023-11-19T08:50:27;19.38;;;2.97;;
33268;SDS011;19640;50.944;5.260;2023-11-19T08:52:52;15.07;;;2.10;;
33268;SDS011;19640;50.944;5.260;2023-11-19T08:55:18;14.30;;;2.80;;
33268;SDS011;19640;50.944;5.260;2023-11-19T08:57:44;22.65;;;3.35;;
33268;SDS011;19640;50.944;5.260;2023-11-19T09:00:11;17.25;;;2.63;;
33268;SDS011;19640;50.944;5.260;2023-11-19T09:02:39;24.90;;;2.30;;
33268;SDS011;19640;50.944;5.260;2023-11-19T09:05:05;26.45;;;3.90;;
33268;SDS011;19640;50.944;5.260;2023-11-19T09:07:34;18.67;;;2.42;;
33268;SDS011;19640;50.944;5.260;2023-11-19T09:10:00;19.65;;;2.80;;
33268;SDS011;19640;50.944;5.260;2023-11-19T09:12:32;14.90;;;2.45;;
33268;SDS011;19640;50.944;5.260;2023-11-19T09:14:58;14.23;;;2.38;;
33268;SDS011;19640;50.944;5.260;2023-11-19T09:17:23;16.23;;;3.08;;
33268;SDS011;19640;50.944;5.260;2023-11-19T09:19:49;18.65;;;2.83;;
33268;SDS011;19640;50.944;5.260;2023-11-19T09:22:14;21.27;;;2.80;;
33268;SDS011;19640;50.944;5.260;2023-11-19T09:24:41;19.70;;;3.05;;
33268;SDS011;19640;50.944;5.260;2023-11-19T09:27:09;25.15;;;2.92;;
33268;SDS011;19640;50.944;5.260;2023-11-19T09:29:34;17.52;;;2.13;;
33268;SDS011;19640;50.944;5.260;2023-11-19T09:32:00;19.02;;;2.60;;
33268;SDS011;19640;50.944;5.260;2023-11-19T09:34:26;24.20;;;3.03;;
33268;SDS011;19640;50.944;5.260;2023-11-19T09:36:53;13.38;;;2.47;;
33268;SDS011;19640;50.944;5.260;2023-11-19T09:39:18;15.57;;;2.80;;
33268;SDS011;19640;50.944;5.260;2023-11-19T09:41:46;18.52;;;2.53;;
33268;SDS011;19640;50.944;5.260;2023-11-19T09:44:12;13.63;;;2.17;;
33268;SDS011;19640;50.944;5.260;2023-11-19T09:46:40;11.00;;;2.28;;
33268;SDS011;19640;50.944;5.260;2023-11-19T09:49:07;12.90;;;2.13;;
33268;SDS011;19640;50.944;5.260;2023-11-19T09:51:37;14.90;;;3.55;;
33268;SDS011;19640;50.944;5.260;2023-11-19T09:54:03;14.32;;;2.67;;
33268;SDS011;19640;50.944;5.260;2023-11-19T09:56:29;15.38;;;2.28;;
33268;SDS011;19640;50.944;5.260;2023-11-19T09:58:55;18.58;;;3.50;;
33268;SDS011;19640;50.944;5.260;2023-11-19T10:01:21;13.90;;;2.45;;
33268;SDS011;19640;50.944;5.260;2023-11-19T10:03:47;11.18;;;2.78;;
33268;SDS011;19640;50.944;5.260;2023-11-19T10:06:15;14.57;;;2.28;;
33268;SDS011;19640;50.944;5.260;2023-11-19T10:08:43;15.45;;;2.42;;
33268;SDS011;19640;50.944;5.260;2023-11-19T10:11:09;21.00;;;2.17;;
33268;SDS011;19640;50.944;5.260;2023-11-19T10:13:38;18.40;;;2.92;;
33268;SDS011;19640;50.944;5.260;2023-11-19T10:16:07;14.13;;;2.22;;
33268;SDS011;19640;50.944;5.260;2023-11-19T10:18:49;18.20;;;2.17;;
33268;SDS011;19640;50.944;5.260;2023-11-19T10:21:19;17.25;;;3.10;;
33268;SDS011;19640;50.944;5.260;2023-11-19T10:23:49;20.50;;;2.63;;
33268;SDS011;19640;50.944;5.260;2023-11-19T10:26:16;11.57;;;1.60;;
33268;SDS011;19640;50.944;5.260;2023-11-19T10:28:43;9.75;;;2.67;;
33268;SDS011;19640;50.944;5.260;2023-11-19T10:31:11;11.25;;;1.83;;
33268;SDS011;19640;50.944;5.260;2023-11-19T10:33:41;11.07;;;2.05;;
33268;SDS011;19640;50.944;5.260;2023-11-19T10:36:10;14.05;;;2.25;;
33268;SDS011;19640;50.944;5.260;2023-11-19T10:38:40;15.05;;;2.80;;
33268;SDS011;19640;50.944;5.260;2023-11-19T10:41:06;15.55;;;1.85;;
33268;SDS011;19640;50.944;5.260;2023-11-19T10:43:42;16.38;;;2.35;;
33268;SDS011;19640;50.944;5.260;2023-11-19T10:46:13;17.58;;;2.65;;
33268;SDS011;19640;50.944;5.260;2023-11-19T10:48:39;14.63;;;2.40;;
33268;SDS011;19640;50.944;5.260;2023-11-19T10:51:06;7.80;;;1.63;;
33268;SDS011;19640;50.944;5.260;2023-11-19T10:53:37;16.77;;;2.63;;
33268;SDS011;19640;50.944;5.260;2023-11-19T10:56:05;16.42;;;2.25;;
33268;SDS011;19640;50.944;5.260;2023-11-19T10:58:35;10.10;;;1.85;;
33268;SDS011;19640;50.944;5.260;2023-11-19T11:01:07;17.23;;;2.42;;
33268;SDS011;19640;50.944;5.260;2023-11-19T11:03:41;18.00;;;2.00;;
33268;SDS011;19640;50.944;5.260;2023-11-19T11:06:11;16.35;;;2.78;;
33268;SDS011;19640;50.944;5.260;2023-11-19T11:08:39;13.23;;;2.08;;
33268;SDS011;19640;50.944;5.260;2023-11-19T11:11:06;12.27;;;3.38;;
33268;SDS011;19640;50.944;5.260;2023-11-19T11:13:33;17.08;;;2.72;;
33268;SDS011;19640;50.944;5.260;2023-11-19T11:15:59;17.20;;;2.00;;
33268;SDS011;19640;50.944;5.260;2023-11-19T11:18:25;14.65;;;2.20;;
33268;SDS011;19640;50.944;5.260;2023-11-19T11:21:07;18.55;;;2.67;;
33268;SDS011;19640;50.944;5.260;2023-11-19T11:29:35;16.65;;;2.08;;
33268;SDS011;19640;50.944;5.260;2023-11-19T11:37:33;17.38;;;3.05;;
33268;SDS011;19640;50.944;5.260;2023-11-19T11:40:03;10.95;;;1.50;;
33268;SDS011;19640;50.944;5.260;2023-11-19T11:42:38;15.57;;;2.10;;
33268;SDS011;19640;50.944;5.260;2023-11-19T11:45:10;14.60;;;1.77;;
33268;SDS011;19640;50.944;5.260;2023-11-19T11:50:13;9.30;;;1.95;;
33268;SDS011;19640;50.944;5.260;2023-11-19T11:57:51;14.23;;;2.55;;
33268;SDS011;19640;50.944;5.260;2023-11-19T12:02:57;19.83;;;2.47;;
33268;SDS011;19640;50.944;5.260;2023-11-19T12:05:25;17.45;;;3.03;;
33268;SDS011;19640;50.944;5.260;2023-11-19T12:07:54;27.80;;;2.67;;
33268;SDS011;19640;50.944;5.260;2023-11-19T12:10:32;19.08;;;1.90;;
33268;SDS011;19640;50.944;5.260;2023-11-19T12:13:03;13.85;;;2.33;;
33268;SDS011;19640;50.944;5.260;2023-11-19T12:15:32;18.13;;;2.42;;
33268;SDS011;19640;50.944;5.260;2023-11-19T12:17:58;19.40;;;2.55;;
33268;SDS011;19640;50.944;5.260;2023-11-19T12:20:24;12.45;;;2.38;;
33268;SDS011;19640;50.944;5.260;2023-11-19T12:22:52;14.63;;;2.55;;
33268;SDS011;19640;50.944;5.260;2023-11-19T12:25:18;15.48;;;2.78;;
33268;SDS011;19640;50.944;5.260;2023-11-19T12:27:48;11.88;;;1.90;;
33268;SDS011;19640;50.944;5.260;2023-11-19T12:30:25;13.60;;;3.05;;
33268;SDS011;19640;50.944;5.260;2023-11-19T12:32:51;11.90;;;1.92;;
33268;SDS011;19640;50.944;5.260;2023-11-19T12:35:20;18.73;;;2.72;;
33268;SDS011;19640;50.944;5.260;2023-11-19T12:37:47;12.80;;;2.70;;
33268;SDS011;19640;50.944;5.260;2023-11-19T12:40:19;15.30;;;2.63;;
33268;SDS011;19640;50.944;5.260;2023-11-19T12:42:49;18.08;;;2.58;;
33268;SDS011;19640;50.944;5.260;2023-11-19T12:45:17;15.82;;;2.45;;
33268;SDS011;19640;50.944;5.260;2023-11-19T12:47:45;18.63;;;3.78;;
33268;SDS011;19640;50.944;5.260;2023-11-19T12:52:54;11.10;;;2.45;;
33268;SDS011;19640;50.944;5.260;2023-11-19T12:55:28;19.55;;;3.47;;
33268;SDS011;19640;50.944;5.260;2023-11-19T12:57:54;12.00;;;2.28;;
33268;SDS011;19640;50.944;5.260;2023-11-19T13:00:24;17.92;;;2.60;;
33268;SDS011;19640;50.944;5.260;2023-11-19T13:02:52;14.40;;;1.83;;
33268;SDS011;19640;50.944;5.260;2023-11-19T13:05:26;18.63;;;1.70;;
33268;SDS011;19640;50.944;5.260;2023-11-19T13:08:04;11.98;;;1.50;;
33268;SDS011;19640;50.944;5.260;2023-11-19T13:10:49;17.75;;;2.08;;
33268;SDS011;19640;50.944;5.260;2023-11-19T13:13:21;16.77;;;2.13;;
33268;SDS011;19640;50.944;5.260;2023-11-19T13:15:47;6.63;;;1.88;;
33268;SDS011;19640;50.944;5.260;2023-11-19T13:18:16;14.52;;;1.85;;
33268;SDS011;19640;50.944;5.260;2023-11-19T13:20:42;8.68;;;2.05;;
33268;SDS011;19640;50.944;5.260;2023-11-19T13:23:08;13.20;;;1.58;;
33268;SDS011;19640;50.944;5.260;2023-11-19T13:25:34;9.50;;;1.83;;
33268;SDS011;19640;50.944;5.260;2023-11-19T13:27:59;9.75;;;2.20;;
33268;SDS011;19640;50.944;5.260;2023-11-19T13:30:25;13.50;;;2.08;;
33268;SDS011;19640;50.944;5.260;2023-11-19T13:32:51;8.63;;;1.90;;
33268;SDS011;19640;50.944;5.260;2023-11-19T13:35:19;12.20;;;1.88;;
33268;SDS011;19640;50.944;5.260;2023-11-19T13:37:46;11.15;;;2.47;;
33268;SDS011;19640;50.944;5.260;2023-11-19T13:40:12;9.48;;;2.05;;
33268;SDS011;19640;50.944;5.260;2023-11-19T13:42:41;12.25;;;2.08;;
33268;SDS011;19640;50.944;5.260;2023-11-19T13:47:40;14.20;;;1.80;;
33268;SDS011;19640;50.944;5.260;2023-11-19T13:52:35;21.45;;;3.03;;
33268;SDS011;19640;50.944;5.260;2023-11-19T13:55:05;10.57;;;2.50;;
33268;SDS011;19640;50.944;5.260;2023-11-19T13:57:31;15.70;;;2.78;;
33268;SDS011;19640;50.944;5.260;2023-11-19T13:59:57;14.95;;;2.15;;
33268;SDS011;19640;50.944;5.260;2023-11-19T14:02:24;16.98;;;2.58;;
33268;SDS011;19640;50.944;5.260;2023-11-19T14:04:49;16.25;;;1.90;;
33268;SDS011;19640;50.944;5.260;2023-11-19T14:07:15;15.88;;;2.28;;
33268;SDS011;19640;50.944;5.260;2023-11-19T14:09:44;13.50;;;2.05;;
33268;SDS011;19640;50.944;5.260;2023-11-19T14:12:10;9.40;;;2.30;;
33268;SDS011;19640;50.944;5.260;2023-11-19T14:14:38;18.50;;;3.30;;
33268;SDS011;19640;50.944;5.260;2023-11-19T14:17:04;10.57;;;2.10;;
33268;SDS011;19640;50.944;5.260;2023-11-19T14:19:30;12.05;;;2.15;;
33268;SDS011;19640;50.944;5.260;2023-11-19T14:21:56;11.48;;;2.10;;
33268;SDS011;19640;50.944;5.260;2023-11-19T14:24:21;19.65;;;2.25;;
33268;SDS011;19640;50.944;5.260;2023-11-19T14:26:48;10.25;;;1.85;;
33268;SDS011;19640;50.944;5.260;2023-11-19T14:29:15;14.32;;;2.28;;
33268;SDS011;19640;50.944;5.260;2023-11-19T14:31:40;14.32;;;2.20;;
33268;SDS011;19640;50.944;5.260;2023-11-19T14:34:06;15.95;;;2.65;;
33268;SDS011;19640;50.944;5.260;2023-11-19T14:36:32;10.73;;;2.20;;
33268;SDS011;19640;50.944;5.260;2023-11-19T14:38:57;15.95;;;5.38;;
33268;SDS011;19640;50.944;5.260;2023-11-19T14:41:24;17.63;;;2.50;;
33268;SDS011;19640;50.944;5.260;2023-11-19T14:43:50;14.88;;;2.10;;
33268;SDS011;19640;50.944;5.260;2023-11-19T14:46:16;14.80;;;2.67;;
33268;SDS011;19640;50.944;5.260;2023-11-19T14:48:42;14.05;;;2.78;;
33268;SDS011;19640;50.944;5.260;2023-11-19T14:51:07;18.90;;;3.38;;
33268;SDS011;19640;50.944;5.260;2023-11-19T14:53:34;13.27;;;2.42;;
33268;SDS011;19640;50.944;5.260;2023-11-19T14:56:00;11.93;;;2.55;;
33268;SDS011;19640;50.944;5.260;2023-11-19T14:58:26;15.82;;;2.20;;
33268;SDS011;19640;50.944;5.260;2023-11-19T15:00:52;13.80;;;2.08;;
33268;SDS011;19640;50.944;5.260;2023-11-19T15:03:18;14.00;;;2.33;;
33268;SDS011;19640;50.944;5.260;2023-11-19T15:05:47;12.45;;;2.45;;
33268;SDS011;19640;50.944;5.260;2023-11-19T15:08:13;17.80;;;2.75;;